createdAt,value
2018-06-09T00:00:37.900Z,0
2018-06-09T00:01:19.620Z,0
2018-06-09T00:02:00.802Z,0
2018-06-09T00:02:41.983Z,0
2018-06-09T00:03:23.048Z,0
2018-06-09T00:04:04.083Z,0
2018-06-09T00:04:45.122Z,0
2018-06-09T00:05:26.105Z,0
2018-06-09T00:06:08.083Z,0
2018-06-09T00:06:49.215Z,0
2018-06-09T00:07:30.301Z,0
2018-06-09T00:08:11.913Z,0
2018-06-09T00:08:53.075Z,0
2018-06-09T00:09:34.177Z,0
2018-06-09T00:10:16.212Z,0
2018-06-09T00:10:57.380Z,0
2018-06-09T00:11:38.333Z,0
2018-06-09T00:12:19.305Z,0
2018-06-09T00:13:00.301Z,0
2018-06-09T00:13:41.497Z,0
2018-06-09T00:14:22.696Z,0
2018-06-09T00:15:03.857Z,0
2018-06-09T00:15:45.026Z,0
2018-06-09T00:16:26.790Z,0
2018-06-09T00:17:07.930Z,0
2018-06-09T00:17:49.048Z,0
2018-06-09T00:18:30.227Z,0
2018-06-09T00:19:11.439Z,0
2018-06-09T00:19:52.549Z,0
2018-06-09T00:20:33.646Z,0
2018-06-09T00:21:14.762Z,0
2018-06-09T00:21:55.898Z,0
2018-06-09T00:22:37.104Z,0
2018-06-09T00:23:18.336Z,0
2018-06-09T00:23:59.496Z,0
2018-06-09T00:24:40.681Z,0
2018-06-09T00:25:21.641Z,0
2018-06-09T00:26:02.806Z,0
2018-06-09T00:26:43.932Z,0
2018-06-09T00:27:25.177Z,0
2018-06-09T00:28:06.299Z,0
2018-06-09T00:28:47.406Z,0
2018-06-09T00:29:28.458Z,0
2018-06-09T00:30:09.583Z,0
2018-06-09T00:30:50.775Z,0
2018-06-09T00:31:31.972Z,0
2018-06-09T00:32:12.881Z,0
2018-06-09T00:32:53.764Z,0
2018-06-09T00:33:34.779Z,0
2018-06-09T00:34:15.874Z,0
2018-06-09T00:34:57.140Z,0
2018-06-09T00:35:38.283Z,0
2018-06-09T00:36:19.495Z,0
2018-06-09T00:37:01.092Z,0
2018-06-09T00:37:42.265Z,0
2018-06-09T00:38:23.493Z,0
2018-06-09T00:39:04.517Z,0
2018-06-09T00:39:45.745Z,0
2018-06-09T00:40:26.923Z,0
2018-06-09T00:41:09.333Z,0
2018-06-09T00:41:50.571Z,0
2018-06-09T00:42:31.764Z,0
2018-06-09T00:43:12.875Z,0
2018-06-09T00:43:53.935Z,0
2018-06-09T00:44:34.963Z,0
2018-06-09T00:45:16.027Z,0
2018-06-09T00:45:58.009Z,0
2018-06-09T00:46:39.877Z,0
2018-06-09T00:47:21.047Z,0
2018-06-09T00:48:02.913Z,0
2018-06-09T00:48:43.438Z,0
2018-06-09T00:49:23.998Z,0
2018-06-09T00:50:05.333Z,0
2018-06-09T00:50:46.443Z,0
2018-06-09T00:51:28.690Z,0
2018-06-09T00:52:09.918Z,0
2018-06-09T00:52:51.166Z,0
2018-06-09T00:53:32.318Z,0
2018-06-09T00:54:13.514Z,0
2018-06-09T00:54:55.376Z,0
2018-06-09T00:55:36.470Z,0
2018-06-09T00:56:17.604Z,0
2018-06-09T00:56:58.806Z,0
2018-06-09T00:57:40.117Z,0
2018-06-09T00:58:21.271Z,0
2018-06-09T00:59:02.470Z,0
2018-06-09T00:59:44.363Z,0
2018-06-09T01:00:25.622Z,0
2018-06-09T01:01:06.791Z,0
2018-06-09T01:01:48.713Z,0
2018-06-09T01:02:29.875Z,0
2018-06-09T01:03:11.088Z,0
2018-06-09T01:03:52.227Z,0
2018-06-09T01:04:33.089Z,0
2018-06-09T01:05:14.172Z,0
2018-06-09T01:05:55.354Z,0
2018-06-09T01:06:37.166Z,0
2018-06-09T01:07:18.337Z,0
2018-06-09T01:07:59.522Z,0
2018-06-09T01:08:41.587Z,0
2018-06-09T01:09:22.669Z,0
2018-06-09T01:10:03.864Z,0
2018-06-09T01:10:45.054Z,0
2018-06-09T01:11:26.246Z,0
2018-06-09T01:12:07.410Z,0
2018-06-09T01:12:48.556Z,0
2018-06-09T01:13:30.414Z,0
2018-06-09T01:14:12.202Z,0
2018-06-09T01:14:53.313Z,0
2018-06-09T01:15:35.180Z,0
2018-06-09T01:16:16.325Z,0
2018-06-09T01:16:57.530Z,0
2018-06-09T01:17:38.832Z,0
2018-06-09T01:18:20.611Z,0
2018-06-09T01:19:02.770Z,0
2018-06-09T01:19:44.058Z,0
2018-06-09T01:20:25.241Z,0
2018-06-09T01:21:06.467Z,0
2018-06-09T01:21:48.357Z,0
2018-06-09T01:22:29.626Z,0
2018-06-09T01:23:10.775Z,0
2018-06-09T01:23:52.014Z,0
2018-06-09T01:24:33.148Z,0
2018-06-09T01:25:15.182Z,0
2018-06-09T01:25:56.380Z,0
2018-06-09T01:26:37.602Z,0
2018-06-09T01:27:18.847Z,0
2018-06-09T01:28:00.077Z,0
2018-06-09T01:28:41.150Z,0
2018-06-09T01:29:22.323Z,0
2018-06-09T01:30:03.369Z,0
2018-06-09T01:30:44.438Z,0
2018-06-09T01:31:26.343Z,0
2018-06-09T01:32:07.336Z,0
2018-06-09T01:32:48.556Z,0
2018-06-09T01:33:30.602Z,0
2018-06-09T01:34:11.713Z,0
2018-06-09T01:34:52.974Z,0
2018-06-09T01:35:34.067Z,0
2018-06-09T01:36:15.206Z,0
2018-06-09T01:36:56.430Z,0
2018-06-09T01:37:37.555Z,0
2018-06-09T01:38:18.886Z,0
2018-06-09T01:39:00.136Z,0
2018-06-09T01:39:42.212Z,0
2018-06-09T01:40:23.337Z,0
2018-06-09T01:41:04.520Z,0
2018-06-09T01:41:45.758Z,0
2018-06-09T01:42:26.803Z,0
2018-06-09T01:43:08.602Z,0
2018-06-09T01:43:49.653Z,0
2018-06-09T01:44:30.844Z,0
2018-06-09T01:45:12.079Z,0
2018-06-09T01:45:53.344Z,0
2018-06-09T01:46:34.575Z,0
2018-06-09T01:47:15.723Z,0
2018-06-09T01:47:57.012Z,0
2018-06-09T01:48:38.295Z,0
2018-06-09T01:49:19.298Z,0
2018-06-09T01:50:00.357Z,0
2018-06-09T01:50:41.561Z,0
2018-06-09T01:51:22.722Z,0
2018-06-09T01:52:03.653Z,0
2018-06-09T01:52:44.839Z,0
2018-06-09T01:53:25.981Z,0
2018-06-09T01:54:07.124Z,0
2018-06-09T01:54:48.184Z,0
2018-06-09T01:55:29.355Z,0
2018-06-09T01:56:10.329Z,0
2018-06-09T01:56:52.359Z,0
2018-06-09T01:57:33.567Z,0
2018-06-09T01:58:14.872Z,0
2018-06-09T01:58:56.076Z,0
2018-06-09T01:59:37.261Z,0
2018-06-09T02:00:18.397Z,0
2018-06-09T02:00:59.627Z,0
2018-06-09T02:01:40.837Z,0
2018-06-09T02:02:21.933Z,0
2018-06-09T02:03:03.092Z,4
2018-06-09T02:03:44.335Z,4
2018-06-09T02:04:25.370Z,4
2018-06-09T02:05:07.443Z,0
2018-06-09T02:05:48.497Z,0
2018-06-09T02:06:29.535Z,0
2018-06-09T02:07:11.699Z,0
2018-06-09T02:07:53.463Z,0
2018-06-09T02:08:35.687Z,4
2018-06-09T02:09:16.824Z,4
2018-06-09T02:09:57.811Z,4
2018-06-09T02:10:39.115Z,0
2018-06-09T02:11:20.242Z,4
2018-06-09T02:12:01.356Z,4
2018-06-09T02:12:42.516Z,4
2018-06-09T02:13:24.731Z,4
2018-06-09T02:14:05.790Z,4
2018-06-09T02:14:47.827Z,4
2018-06-09T02:15:29.669Z,4
2018-06-09T02:16:10.678Z,8
2018-06-09T02:16:51.692Z,8
2018-06-09T02:17:32.882Z,8
2018-06-09T02:18:13.953Z,4
2018-06-09T02:18:55.093Z,8
2018-06-09T02:19:36.992Z,8
2018-06-09T02:20:18.212Z,8
2018-06-09T02:20:59.258Z,8
2018-06-09T02:21:40.361Z,8
2018-06-09T02:22:22.204Z,12
2018-06-09T02:23:03.289Z,16
2018-06-09T02:23:44.307Z,16
2018-06-09T02:24:25.389Z,16
2018-06-09T02:25:07.067Z,16
2018-06-09T02:25:48.215Z,16
2018-06-09T02:26:29.405Z,20
2018-06-09T02:27:10.495Z,20
2018-06-09T02:27:51.746Z,24
2018-06-09T02:28:32.895Z,20
2018-06-09T02:29:14.019Z,24
2018-06-09T02:29:56.205Z,28
2018-06-09T02:30:38.193Z,32
2018-06-09T02:31:19.407Z,28
2018-06-09T02:32:00.520Z,32
2018-06-09T02:32:42.094Z,36
2018-06-09T02:33:23.279Z,36
2018-06-09T02:34:05.228Z,36
2018-06-09T02:34:46.307Z,36
2018-06-09T02:35:28.176Z,36
2018-06-09T02:36:09.340Z,40
2018-06-09T02:36:50.461Z,40
2018-06-09T02:37:32.201Z,40
2018-06-09T02:38:13.262Z,44
2018-06-09T02:38:54.326Z,48
2018-06-09T02:39:35.516Z,52
2018-06-09T02:40:16.718Z,48
2018-06-09T02:40:57.826Z,52
2018-06-09T02:41:39.045Z,56
2018-06-09T02:42:20.070Z,56
2018-06-09T02:43:01.896Z,64
2018-06-09T02:43:43.044Z,64
2018-06-09T02:44:26.219Z,68
2018-06-09T02:45:07.857Z,72
2018-06-09T02:45:48.803Z,76
2018-06-09T02:46:29.965Z,76
2018-06-09T02:47:11.033Z,80
2018-06-09T02:47:53.157Z,84
2018-06-09T02:48:34.350Z,84
2018-06-09T02:49:15.387Z,88
2018-06-09T02:49:56.554Z,96
2018-06-09T02:50:37.711Z,96
2018-06-09T02:51:18.970Z,104
2018-06-09T02:52:00.175Z,108
2018-06-09T02:52:41.330Z,112
2018-06-09T02:53:22.379Z,120
2018-06-09T02:54:03.448Z,120
2018-06-09T02:54:44.593Z,132
2018-06-09T02:55:25.751Z,136
2018-06-09T02:56:06.871Z,140
2018-06-09T02:56:47.987Z,148
2018-06-09T02:57:29.120Z,156
2018-06-09T02:58:10.287Z,160
2018-06-09T02:58:52.505Z,168
2018-06-09T02:59:33.636Z,172
2018-06-09T03:00:14.789Z,184
2018-06-09T03:00:55.833Z,192
2018-06-09T03:01:37.078Z,200
2018-06-09T03:02:18.087Z,212
2018-06-09T03:02:59.230Z,228
2018-06-09T03:03:41.929Z,236
2018-06-09T03:04:23.064Z,252
2018-06-09T03:05:04.116Z,264
2018-06-09T03:05:45.205Z,276
2018-06-09T03:06:26.141Z,288
2018-06-09T03:07:07.346Z,300
2018-06-09T03:07:48.409Z,312
2018-06-09T03:08:30.073Z,328
2018-06-09T03:09:11.215Z,340
2018-06-09T03:09:52.280Z,356
2018-06-09T03:10:34.216Z,372
2018-06-09T03:11:15.332Z,388
2018-06-09T03:11:56.447Z,400
2018-06-09T03:12:37.614Z,408
2018-06-09T03:13:19.425Z,420
2018-06-09T03:14:01.484Z,428
2018-06-09T03:14:42.594Z,436
2018-06-09T03:15:23.689Z,444
2018-06-09T03:16:04.793Z,460
2018-06-09T03:16:45.902Z,468
2018-06-09T03:17:27.674Z,480
2018-06-09T03:18:08.786Z,500
2018-06-09T03:18:49.829Z,516
2018-06-09T03:19:30.680Z,532
2018-06-09T03:20:11.740Z,552
2018-06-09T03:20:52.899Z,572
2018-06-09T03:21:33.931Z,588
2018-06-09T03:22:14.952Z,604
2018-06-09T03:22:56.188Z,620
2018-06-09T03:23:37.262Z,632
2018-06-09T03:24:18.317Z,648
2018-06-09T03:24:59.536Z,664
2018-06-09T03:25:40.554Z,684
2018-06-09T03:26:22.381Z,708
2018-06-09T03:27:03.460Z,736
2018-06-09T03:27:44.561Z,764
2018-06-09T03:28:25.528Z,788
2018-06-09T03:29:07.265Z,820
2018-06-09T03:29:49.176Z,848
2018-06-09T03:30:31.116Z,880
2018-06-09T03:31:12.355Z,908
2018-06-09T03:31:53.829Z,936
2018-06-09T03:32:34.870Z,956
2018-06-09T03:33:15.836Z,972
2018-06-09T03:33:56.898Z,992
2018-06-09T03:34:37.896Z,1008
2018-06-09T03:35:19.650Z,1020
2018-06-09T03:36:00.673Z,1028
2018-06-09T03:36:42.724Z,1036
2018-06-09T03:37:23.703Z,1044
2018-06-09T03:38:04.658Z,1056
2018-06-09T03:38:46.733Z,1068
2018-06-09T03:39:27.664Z,1076
2018-06-09T03:40:08.642Z,1092
2018-06-09T03:40:49.435Z,1108
2018-06-09T03:41:30.225Z,1120
2018-06-09T03:42:11.271Z,1128
2018-06-09T03:42:52.138Z,1140
2018-06-09T03:43:34.162Z,1148
2018-06-09T03:44:15.140Z,1152
2018-06-09T03:44:56.029Z,1156
2018-06-09T03:45:36.893Z,1152
2018-06-09T03:46:17.911Z,1140
2018-06-09T03:46:59.723Z,1140
2018-06-09T03:47:42.222Z,1136
2018-06-09T03:48:23.226Z,1136
2018-06-09T03:49:04.126Z,1144
2018-06-09T03:49:45.333Z,1148
2018-06-09T03:50:26.319Z,1156
2018-06-09T03:51:07.495Z,1164
2018-06-09T03:51:48.516Z,1176
2018-06-09T03:52:29.636Z,1184
2018-06-09T03:53:11.613Z,1196
2018-06-09T03:53:52.657Z,1216
2018-06-09T03:54:33.597Z,1236
2018-06-09T03:55:14.513Z,1256
2018-06-09T03:55:56.127Z,1276
2018-06-09T03:56:37.047Z,1292
2018-06-09T03:57:18.051Z,1308
2018-06-09T03:57:59.187Z,1320
2018-06-09T03:58:40.293Z,1332
2018-06-09T03:59:21.493Z,1352
2018-06-09T04:00:02.607Z,1368
2018-06-09T04:00:43.533Z,1388
2018-06-09T04:01:24.565Z,1400
2018-06-09T04:02:05.484Z,1408
2018-06-09T04:02:46.541Z,1420
2018-06-09T04:03:27.499Z,1428
2018-06-09T04:04:08.176Z,1440
2018-06-09T04:04:48.718Z,1456
2018-06-09T04:05:29.671Z,1472
2018-06-09T04:06:10.466Z,1488
2018-06-09T04:06:51.016Z,1508
2018-06-09T04:07:31.591Z,1532
2018-06-09T04:08:12.166Z,1548
2018-06-09T04:08:52.785Z,1564
2018-06-09T04:09:33.297Z,1584
2018-06-09T04:10:14.011Z,1612
2018-06-09T04:10:55.118Z,1644
2018-06-09T04:11:36.245Z,1676
2018-06-09T04:12:17.395Z,1720
2018-06-09T04:12:58.458Z,1760
2018-06-09T04:13:39.535Z,1800
2018-06-09T04:14:20.526Z,1844
2018-06-09T04:15:01.800Z,1884
2018-06-09T04:15:43.027Z,1928
2018-06-09T04:16:24.120Z,1968
2018-06-09T04:17:06.186Z,2008
2018-06-09T04:17:47.208Z,2048
2018-06-09T04:18:29.122Z,2084
2018-06-09T04:19:10.930Z,2120
2018-06-09T04:19:52.164Z,2152
2018-06-09T04:20:33.327Z,2184
2018-06-09T04:21:15.197Z,2212
2018-06-09T04:21:56.111Z,2240
2018-06-09T04:22:36.977Z,2268
2018-06-09T04:23:18.167Z,2292
2018-06-09T04:24:00.135Z,2316
2018-06-09T04:24:41.165Z,2340
2018-06-09T04:25:23.814Z,2360
2018-06-09T04:26:05.491Z,2384
2018-06-09T04:26:46.537Z,2404
2018-06-09T04:27:27.707Z,2424
2018-06-09T04:28:08.950Z,2444
2018-06-09T04:28:49.943Z,2468
2018-06-09T04:29:31.145Z,2488
2018-06-09T04:30:12.279Z,2512
2018-06-09T04:30:53.325Z,2540
2018-06-09T04:31:34.459Z,2560
2018-06-09T04:32:15.659Z,2584
2018-06-09T04:32:56.741Z,2604
2018-06-09T04:33:37.930Z,2628
2018-06-09T04:34:18.952Z,2652
2018-06-09T04:35:00.061Z,2672
2018-06-09T04:35:41.194Z,2692
2018-06-09T04:36:22.235Z,2716
2018-06-09T04:37:04.169Z,2732
2018-06-09T04:37:45.348Z,2752
2018-06-09T04:38:26.439Z,2764
2018-06-09T04:39:07.487Z,2780
2018-06-09T04:39:48.649Z,2796
2018-06-09T04:40:30.510Z,2808
2018-06-09T04:41:11.715Z,2824
2018-06-09T04:41:53.923Z,2832
2018-06-09T04:42:35.140Z,2848
2018-06-09T04:43:16.265Z,2860
2018-06-09T04:43:57.387Z,2876
2018-06-09T04:44:38.701Z,2896
2018-06-09T04:45:19.810Z,2908
2018-06-09T04:46:01.179Z,2920
2018-06-09T04:46:42.173Z,2936
2018-06-09T04:47:24.252Z,2956
2018-06-09T04:48:05.354Z,2968
2018-06-09T04:48:46.884Z,2976
2018-06-09T04:49:27.887Z,2992
2018-06-09T04:50:08.845Z,3012
2018-06-09T04:50:49.724Z,3036
2018-06-09T04:51:31.367Z,3076
2018-06-09T04:52:12.494Z,3120
2018-06-09T04:52:53.550Z,3164
2018-06-09T04:53:34.624Z,3212
2018-06-09T04:54:15.768Z,3252
2018-06-09T04:54:57.447Z,3288
2018-06-09T04:55:38.580Z,3328
2018-06-09T04:56:19.637Z,3372
2018-06-09T04:57:00.793Z,3412
2018-06-09T04:57:41.862Z,3464
2018-06-09T04:58:22.955Z,3512
2018-06-09T04:59:03.841Z,3556
2018-06-09T04:59:44.804Z,3584
2018-06-09T05:00:25.964Z,3596
2018-06-09T05:01:07.710Z,3592
2018-06-09T05:01:48.590Z,3616
2018-06-09T05:02:29.637Z,3668
2018-06-09T05:03:11.721Z,3768
2018-06-09T05:03:52.634Z,3900
2018-06-09T05:04:33.518Z,4048
2018-06-09T05:05:14.567Z,4208
2018-06-09T05:05:55.726Z,4244
2018-06-09T05:06:36.754Z,4164
2018-06-09T05:07:17.860Z,4004
2018-06-09T05:07:58.940Z,3860
2018-06-09T05:08:39.960Z,3820
2018-06-09T05:09:21.040Z,3832
2018-06-09T05:10:02.731Z,3792
2018-06-09T05:10:43.649Z,3944
2018-06-09T05:11:24.672Z,4104
2018-06-09T05:12:05.647Z,4112
2018-06-09T05:12:46.718Z,4072
2018-06-09T05:13:27.741Z,4124
2018-06-09T05:14:08.876Z,4252
2018-06-09T05:14:49.941Z,4444
2018-06-09T05:15:31.063Z,4776
2018-06-09T05:16:12.215Z,5104
2018-06-09T05:16:53.278Z,5260
2018-06-09T05:17:34.496Z,5408
2018-06-09T05:18:16.276Z,5480
2018-06-09T05:18:57.390Z,5876
2018-06-09T05:19:39.474Z,6648
2018-06-09T05:20:21.937Z,11156
2018-06-09T05:21:03.005Z,21664
2018-06-09T05:21:44.096Z,34336
2018-06-09T05:22:25.196Z,47200
2018-06-09T05:23:06.222Z,52768
2018-06-09T05:23:47.375Z,51040
2018-06-09T05:24:28.500Z,54688
2018-06-09T05:25:10.431Z,54240
2018-06-09T05:25:51.515Z,57376
2018-06-09T05:26:33.103Z,60224
2018-06-09T05:27:14.232Z,53888
2018-06-09T05:27:56.200Z,48288
2018-06-09T05:28:38.989Z,48256
2018-06-09T05:29:20.753Z,52704
2018-06-09T05:30:01.904Z,60032
2018-06-09T05:30:43.044Z,67488
2018-06-09T05:31:24.237Z,65696
2018-06-09T05:32:05.197Z,71296
2018-06-09T05:32:47.027Z,68960
2018-06-09T05:33:28.055Z,64800
2018-06-09T05:34:09.945Z,66976
2018-06-09T05:34:51.667Z,67904
2018-06-09T05:35:32.539Z,70880
2018-06-09T05:36:13.703Z,74144
2018-06-09T05:36:54.858Z,74464
2018-06-09T05:37:36.024Z,73408
2018-06-09T05:38:17.104Z,72832
2018-06-09T05:38:58.193Z,72672
2018-06-09T05:39:42.285Z,73504
2018-06-09T05:40:24.253Z,73152
2018-06-09T05:41:05.928Z,72576
2018-06-09T05:41:46.926Z,68960
2018-06-09T05:42:27.887Z,66528
2018-06-09T05:43:09.110Z,66208
2018-06-09T05:43:50.093Z,66304
2018-06-09T05:44:31.010Z,66944
2018-06-09T05:45:12.096Z,67072
2018-06-09T05:45:53.354Z,65504
2018-06-09T05:46:34.480Z,64352
2018-06-09T05:47:15.561Z,61408
2018-06-09T05:47:56.766Z,58720
2018-06-09T05:48:38.484Z,58784
2018-06-09T05:49:19.528Z,62656
2018-06-09T05:50:01.243Z,65504
2018-06-09T05:50:43.235Z,65504
2018-06-09T05:51:24.262Z,64640
2018-06-09T05:52:05.405Z,63936
2018-06-09T05:52:46.350Z,64000
2018-06-09T05:53:27.398Z,62752
2018-06-09T05:54:08.665Z,60960
2018-06-09T05:54:49.789Z,58784
2018-06-09T05:55:30.879Z,56128
2018-06-09T05:56:12.021Z,57248
2018-06-09T05:56:53.222Z,60320
2018-06-09T05:57:34.824Z,63168
2018-06-09T05:58:15.711Z,65056
2018-06-09T05:58:56.594Z,66560
2018-06-09T05:59:38.275Z,66272
2018-06-09T06:00:19.320Z,65472
2018-06-09T06:01:00.364Z,66848
2018-06-09T06:01:41.508Z,66560
2018-06-09T06:02:22.564Z,65856
2018-06-09T06:03:04.277Z,66240
2018-06-09T06:03:45.096Z,67360
2018-06-09T06:04:27.807Z,66528
2018-06-09T06:05:08.911Z,67392
2018-06-09T06:05:49.823Z,66944
2018-06-09T06:06:30.969Z,67680
2018-06-09T06:07:12.058Z,66976
2018-06-09T06:07:53.077Z,68384
2018-06-09T06:08:34.044Z,66848
2018-06-09T06:09:15.123Z,65440
2018-06-09T06:09:56.207Z,63648
2018-06-09T06:10:37.993Z,65664
2018-06-09T06:11:19.717Z,68384
2018-06-09T06:12:00.929Z,70080
2018-06-09T06:12:42.415Z,71008
2018-06-09T06:13:23.523Z,74112
2018-06-09T06:14:05.280Z,74208
2018-06-09T06:14:46.457Z,73024
2018-06-09T06:15:27.441Z,71136
2018-06-09T06:16:08.637Z,70496
2018-06-09T06:16:49.676Z,70304
2018-06-09T06:17:30.775Z,70144
2018-06-09T06:18:11.740Z,72384
2018-06-09T06:18:52.850Z,70048
2018-06-09T06:19:34.016Z,68032
2018-06-09T06:20:14.912Z,62880
2018-06-09T06:20:56.054Z,60032
2018-06-09T06:21:37.305Z,58464
2018-06-09T06:22:18.462Z,64224
2018-06-09T06:23:00.922Z,68640
2018-06-09T06:23:42.155Z,71392
2018-06-09T06:24:23.442Z,71872
2018-06-09T06:25:04.683Z,70592
2018-06-09T06:25:45.849Z,71616
2018-06-09T06:26:27.089Z,71648
2018-06-09T06:27:08.189Z,69952
2018-06-09T06:27:50.066Z,70560
2018-06-09T06:28:31.365Z,73600
2018-06-09T06:29:12.350Z,72416
2018-06-09T06:29:53.856Z,63328
2018-06-09T06:30:35.586Z,57312
2018-06-09T06:31:17.181Z,64736
2018-06-09T06:31:58.427Z,71616
2018-06-09T06:32:39.640Z,71040
2018-06-09T06:33:21.522Z,74304
2018-06-09T06:34:02.678Z,74784
2018-06-09T06:34:43.977Z,76512
2018-06-09T06:35:25.179Z,72992
2018-06-09T06:36:06.534Z,71456
2018-06-09T06:36:47.518Z,71488
2018-06-09T06:37:28.503Z,71392
2018-06-09T06:38:09.493Z,72544
2018-06-09T06:38:50.529Z,73600
2018-06-09T06:39:31.677Z,75040
2018-06-09T06:40:13.176Z,76000
2018-06-09T06:40:54.333Z,77536
2018-06-09T06:41:35.979Z,78592
2018-06-09T06:42:17.777Z,78624
2018-06-09T06:42:59.842Z,76224
2018-06-09T06:43:40.890Z,72064
2018-06-09T06:44:22.876Z,74112
2018-06-09T06:45:04.159Z,76448
2018-06-09T06:45:45.317Z,76640
2018-06-09T06:46:26.279Z,76832
2018-06-09T06:47:07.297Z,74048
2018-06-09T06:47:47.860Z,69024
2018-06-09T06:48:28.433Z,67136
2018-06-09T06:49:09.465Z,67776
2018-06-09T06:49:50.725Z,66016
2018-06-09T06:50:31.907Z,64832
2018-06-09T06:51:13.848Z,63968
2018-06-09T06:51:55.128Z,66176
2018-06-09T06:52:36.173Z,68960
2018-06-09T06:53:17.407Z,71488
2018-06-09T06:53:59.334Z,74016
2018-06-09T06:54:40.463Z,76128
2018-06-09T06:55:21.661Z,76704
2018-06-09T06:56:03.565Z,77024
2018-06-09T06:56:44.686Z,76640
2018-06-09T06:57:25.780Z,76320
2018-06-09T06:58:06.733Z,74880
2018-06-09T06:58:47.820Z,73984
2018-06-09T06:59:28.857Z,72800
2018-06-09T07:00:10.000Z,73408
2018-06-09T07:00:50.954Z,73600
2018-06-09T07:01:32.050Z,72288
2018-06-09T07:02:13.160Z,70560
2018-06-09T07:02:54.321Z,71680
2018-06-09T07:03:35.335Z,72640
2018-06-09T07:04:16.376Z,69824
2018-06-09T07:04:57.328Z,65056
2018-06-09T07:05:38.481Z,62592
2018-06-09T07:06:19.615Z,65120
2018-06-09T07:07:00.865Z,66816
2018-06-09T07:07:41.945Z,65664
2018-06-09T07:08:23.182Z,65920
2018-06-09T07:09:05.318Z,70176
2018-06-09T07:09:46.490Z,73472
2018-06-09T07:10:27.577Z,73856
2018-06-09T07:11:08.693Z,73696
2018-06-09T07:11:49.648Z,74240
2018-06-09T07:12:30.738Z,74176
2018-06-09T07:13:11.801Z,73504
2018-06-09T07:13:52.956Z,72704
2018-06-09T07:14:34.095Z,73248
2018-06-09T07:15:15.133Z,74464
2018-06-09T07:15:56.286Z,75520
2018-06-09T07:16:37.439Z,75456
2018-06-09T07:17:18.555Z,74208
2018-06-09T07:17:59.666Z,72960
2018-06-09T07:18:40.807Z,72160
2018-06-09T07:19:21.874Z,72320
2018-06-09T07:20:03.275Z,74624
2018-06-09T07:20:44.346Z,76992
2018-06-09T07:21:26.279Z,80256
2018-06-09T07:22:07.318Z,81280
2018-06-09T07:22:49.321Z,79776
2018-06-09T07:23:30.535Z,79872
2018-06-09T07:24:11.543Z,79712
2018-06-09T07:24:52.639Z,80288
2018-06-09T07:25:34.851Z,82176
2018-06-09T07:26:16.060Z,82912
2018-06-09T07:26:58.133Z,82560
2018-06-09T07:27:39.339Z,82272
2018-06-09T07:28:20.283Z,82720
2018-06-09T07:29:01.211Z,83008
2018-06-09T07:29:42.500Z,82080
2018-06-09T07:30:23.833Z,81664
2018-06-09T07:31:04.940Z,82144
2018-06-09T07:31:46.018Z,82688
2018-06-09T07:32:27.025Z,82944
2018-06-09T07:33:08.830Z,82912
2018-06-09T07:33:50.494Z,81312
2018-06-09T07:34:32.388Z,81536
2018-06-09T07:35:13.640Z,81600
2018-06-09T07:35:54.490Z,82464
2018-06-09T07:36:35.417Z,81408
2018-06-09T07:37:16.665Z,79488
2018-06-09T07:37:58.953Z,80672
2018-06-09T07:38:40.669Z,82816
2018-06-09T07:39:21.921Z,83936
2018-06-09T07:40:03.201Z,83008
2018-06-09T07:40:44.181Z,84384
2018-06-09T07:41:25.231Z,84992
2018-06-09T07:42:06.476Z,83520
2018-06-09T07:42:47.490Z,83616
2018-06-09T07:43:28.517Z,84896
2018-06-09T07:44:09.823Z,84320
2018-06-09T07:44:51.060Z,84288
2018-06-09T07:45:32.890Z,84608
2018-06-09T07:46:14.094Z,88800
2018-06-09T07:46:55.203Z,88352
2018-06-09T07:47:36.209Z,86464
2018-06-09T07:48:18.979Z,81440
2018-06-09T07:48:59.981Z,83616
2018-06-09T07:49:41.079Z,86848
2018-06-09T07:50:22.244Z,87264
2018-06-09T07:51:03.299Z,90432
2018-06-09T07:51:44.430Z,89120
2018-06-09T07:52:25.668Z,86144
2018-06-09T07:53:06.702Z,86048
2018-06-09T07:53:47.774Z,85024
2018-06-09T07:54:28.871Z,84896
2018-06-09T07:55:09.966Z,82112
2018-06-09T07:55:51.076Z,77280
2018-06-09T07:56:32.305Z,72256
2018-06-09T07:57:14.845Z,67744
2018-06-09T07:57:55.919Z,63744
2018-06-09T07:58:37.244Z,60928
2018-06-09T07:59:18.359Z,51168
2018-06-09T07:59:59.540Z,32864
2018-06-09T08:00:40.679Z,20384
2018-06-09T08:01:21.819Z,17376
2018-06-09T08:02:03.492Z,16832
2018-06-09T08:02:44.641Z,16192
2018-06-09T08:03:25.701Z,15904
2018-06-09T08:04:07.363Z,15680
2018-06-09T08:04:48.507Z,15456
2018-06-09T08:05:29.587Z,15128
2018-06-09T08:06:11.133Z,14924
2018-06-09T08:06:51.745Z,14768
2018-06-09T08:07:32.271Z,14580
2018-06-09T08:08:12.832Z,14372
2018-06-09T08:08:53.401Z,14156
2018-06-09T08:09:33.976Z,13928
2018-06-09T08:10:14.537Z,13700
2018-06-09T08:10:55.127Z,13496
2018-06-09T08:11:35.675Z,13256
2018-06-09T08:12:16.266Z,13008
2018-06-09T08:12:56.888Z,12764
2018-06-09T08:13:37.459Z,12528
2018-06-09T08:14:18.067Z,12264
2018-06-09T08:14:58.697Z,12032
2018-06-09T08:15:39.353Z,11788
2018-06-09T08:16:19.965Z,11592
2018-06-09T08:17:00.546Z,11356
2018-06-09T08:17:41.111Z,11144
2018-06-09T08:18:21.771Z,10948
2018-06-09T08:19:02.448Z,10756
2018-06-09T08:19:43.067Z,10560
2018-06-09T08:20:23.609Z,10388
2018-06-09T08:21:04.178Z,10220
2018-06-09T08:21:44.799Z,10072
2018-06-09T08:22:25.345Z,9912
2018-06-09T08:23:06.089Z,9776
2018-06-09T08:23:46.667Z,9616
2018-06-09T08:24:27.229Z,9456
2018-06-09T08:25:07.828Z,9344
2018-06-09T08:25:48.396Z,9200
2018-06-09T08:26:29.149Z,9072
2018-06-09T08:27:09.729Z,8948
2018-06-09T08:27:50.316Z,8864
2018-06-09T08:28:30.868Z,8760
2018-06-09T08:29:11.560Z,8644
2018-06-09T08:29:52.016Z,8552
2018-06-09T08:30:32.578Z,8448
2018-06-09T08:31:13.139Z,8348
2018-06-09T08:31:53.934Z,8252
2018-06-09T08:32:34.474Z,8164
2018-06-09T08:33:15.040Z,8080
2018-06-09T08:33:55.616Z,7916
2018-06-09T08:34:36.175Z,7904
2018-06-09T08:35:16.745Z,7808
2018-06-09T08:35:57.351Z,7724
2018-06-09T08:36:37.933Z,7656
2018-06-09T08:37:18.463Z,7528
2018-06-09T08:37:59.094Z,7484
2018-06-09T08:38:39.769Z,7412
2018-06-09T08:39:20.240Z,7356
2018-06-09T08:40:00.788Z,7284
2018-06-09T08:40:41.341Z,7216
2018-06-09T08:41:21.899Z,7148
2018-06-09T08:42:02.516Z,7072
2018-06-09T08:42:43.023Z,7016
2018-06-09T08:43:23.707Z,6968
2018-06-09T08:44:04.277Z,6900
2018-06-09T08:44:44.825Z,6864
2018-06-09T08:45:25.432Z,6788
2018-06-09T08:46:05.999Z,6728
2018-06-09T08:46:46.544Z,6688
2018-06-09T08:47:27.097Z,6632
2018-06-09T08:48:07.644Z,6628
2018-06-09T08:48:48.299Z,6520
2018-06-09T08:49:28.811Z,6468
2018-06-09T08:50:09.359Z,6412
2018-06-09T08:50:49.924Z,6368
2018-06-09T08:51:30.581Z,6312
2018-06-09T08:52:11.125Z,6272
2018-06-09T08:52:51.692Z,6232
2018-06-09T08:53:32.250Z,6156
2018-06-09T08:54:12.806Z,6112
2018-06-09T08:54:53.407Z,6076
2018-06-09T08:55:33.968Z,6048
2018-06-09T08:56:14.516Z,6008
2018-06-09T08:56:55.184Z,5980
2018-06-09T08:57:35.683Z,5920
2018-06-09T08:58:16.436Z,5876
2018-06-09T08:58:56.987Z,5820
2018-06-09T08:59:37.560Z,5720
2018-06-09T09:00:18.126Z,5760
2018-06-09T09:00:58.693Z,5748
2018-06-09T09:01:39.302Z,5584
2018-06-09T09:02:20.019Z,5612
2018-06-09T09:03:00.562Z,5600
2018-06-09T09:03:41.121Z,5536
2018-06-09T09:04:21.643Z,5468
2018-06-09T09:05:02.294Z,5456
2018-06-09T09:05:42.945Z,5440
2018-06-09T09:06:23.438Z,5148
2018-06-09T09:07:03.992Z,5104
2018-06-09T09:07:44.558Z,5156
2018-06-09T09:08:25.139Z,4968
2018-06-09T09:09:05.719Z,4952
2018-06-09T09:09:46.244Z,4888
2018-06-09T09:10:26.835Z,4852
2018-06-09T09:11:07.376Z,4840
2018-06-09T09:11:48.023Z,4828
2018-06-09T09:12:28.540Z,4800
2018-06-09T09:13:09.105Z,4764
2018-06-09T09:13:49.738Z,4728
2018-06-09T09:14:30.323Z,4692
2018-06-09T09:15:10.913Z,4688
2018-06-09T09:15:51.493Z,4680
2018-06-09T09:16:32.191Z,4624
2018-06-09T09:17:12.794Z,4596
2018-06-09T09:17:53.356Z,4560
2018-06-09T09:18:34.011Z,4560
2018-06-09T09:19:14.616Z,4560
2018-06-09T09:19:55.327Z,4552